Time;durP1;ratioP1;P1;durP2;ratioP2;P2;SDS_P1;SDS_P2;PMS_P1;PMS_P2;Temp;Humidity;BMP_temperature;BMP_pressure;BME280_temperature;BME280_humidity;BME280_pressure;Samples;Min_cycle;Max_cycle;Signal;HPM_P1;HPM_P2
2022/02/05 00:02:59;;;;;;;68.00;63.40;;;;;;;5.44;100.00;102000.15;2012484;71;33012;-78
2022/02/05 00:08:58;;;;;;;66.27;62.03;;;;;;;5.49;100.00;102015.48;2004647;71;33350;-73
2022/02/05 00:38:13;;;;;;;64.30;60.30;;;;;;;5.52;100.00;102034.88;2018819;71;32960;-81
2022/02/05 00:45:13;;;;;;;63.57;59.47;;;;;;;5.45;100.00;102044.02;2017450;71;32922;-78
2022/02/05 00:51:10;;;;;;;66.47;62.37;;;;;;;5.39;100.00;102046.28;1999881;71;32744;-78
2022/02/05 00:57:17;;;;;;;69.43;65.00;;;;;;;5.13;100.00;102013.41;2017614;71;32901;-73
2022/02/05 01:02:37;;;;;;;65.87;61.53;;;;;;;5.34;100.00;102047.50;2010459;71;32883;-73
2022/02/05 01:08:25;;;;;;;66.67;62.53;;;;;;;5.29;100.00;102055.58;1994166;71;32884;-78
2022/02/05 01:14:16;;;;;;;64.57;60.47;;;;;;;5.26;100.00;102069.77;1989609;70;32895;-78
2022/02/05 01:26:10;;;;;;;66.63;62.23;;;;;;;5.26;100.00;102086.86;2000055;70;32793;-78
2022/02/05 01:31:54;;;;;;;66.63;62.53;;;;;;;5.26;100.00;102089.62;2004994;71;32826;-77
2022/02/05 01:56:23;;;;;;;64.57;60.67;;;;;;;5.34;100.00;102083.32;2008930;71;32810;-77
2022/02/05 02:20:24;;;;;;;66.77;62.37;;;;;;;5.10;100.00;102101.11;2016163;71;32886;-77
2022/02/05 02:26:03;;;;;;;68.33;64.23;;;;;;;5.01;100.00;102108.77;1994348;71;32818;-73
2022/02/05 02:31:50;;;;;;;65.83;61.77;;;;;;;5.00;100.00;102112.09;2003569;71;32862;-78
2022/02/05 02:37:43;;;;;;;68.00;63.77;;;;;;;5.04;100.00;102121.60;2016326;71;32875;-78
2022/02/05 02:43:25;;;;;;;66.30;62.30;;;;;;;5.00;100.00;102126.38;2014547;71;33552;-78
2022/02/05 02:49:09;;;;;;;66.67;62.37;;;;;;;4.97;100.00;102127.64;1990090;71;32828;-78
2022/02/05 03:00:56;;;;;;;67.53;63.43;;;;;;;4.97;100.00;102146.92;2011044;71;33287;-78
2022/02/05 03:06:40;;;;;;;66.27;62.17;;;;;;;4.92;100.00;102152.78;2002159;71;32793;-73
2022/02/05 03:12:25;;;;;;;68.80;64.40;;;;;;;4.88;100.00;102151.48;2014482;70;33316;-72
2022/02/05 03:18:14;;;;;;;67.43;63.23;;;;;;;4.86;100.00;102160.52;2005993;71;33240;-77
2022/02/05 03:23:55;;;;;;;69.63;65.27;;;;;;;4.83;100.00;102160.95;2012844;70;32934;-77
2022/02/05 03:29:42;;;;;;;68.23;64.13;;;;;;;4.86;100.00;102166.88;2011401;71;32950;-78
2022/02/05 03:35:28;;;;;;;67.63;63.63;;;;;;;4.80;100.00;102151.20;1997862;71;32876;-72
2022/02/05 03:41:12;;;;;;;67.97;63.97;;;;;;;4.83;100.00;102146.66;2000300;70;32926;-72
2022/02/05 03:46:56;;;;;;;67.10;62.87;;;;;;;4.83;100.00;102158.20;2018047;71;32819;-72
2022/02/05 03:52:42;;;;;;;66.60;62.63;;;;;;;4.86;100.00;102164.12;2011304;70;32857;-71
2022/02/05 03:58:26;;;;;;;66.97;62.57;;;;;;;4.84;100.00;102163.47;1916949;73;33393;-78
2022/02/05 04:04:12;;;;;;;65.93;61.83;;;;;;;4.94;100.00;102176.27;1962857;71;32920;-72
2022/02/05 04:09:59;;;;;;;64.30;60.23;;;;;;;4.90;100.00;102186.03;1952643;72;32841;-78
2022/02/05 04:16:00;;;;;;;65.50;61.30;;;;;;;4.86;100.00;102182.02;2014309;71;32968;-78
2022/02/05 04:21:45;;;;;;;63.70;59.63;;;;;;;4.81;100.00;102169.95;2014837;71;33305;-71
2022/02/05 04:27:30;;;;;;;68.43;63.80;;;;;;;4.78;100.00;102177.27;1995130;71;33242;-77
2022/02/05 04:33:15;;;;;;;67.57;63.30;;;;;;;4.75;100.00;102179.08;1910955;73;32973;-77
2022/02/05 04:39:07;;;;;;;65.93;61.73;;;;;;;4.72;100.00;102187.22;1991149;71;32789;-72
2022/02/05 04:45:05;;;;;;;65.70;61.60;;;;;;;4.66;100.00;102183.96;2012842;71;32842;-78
2022/02/05 04:56:52;;;;;;;65.67;61.50;;;;;;;4.72;100.00;102198.23;1939689;73;32964;-78
2022/02/05 05:02:49;;;;;;;66.27;61.77;;;;;;;4.70;100.00;102191.25;1939986;73;32995;-78
2022/02/05 05:08:36;;;;;;;64.27;60.07;;;;;;;4.65;100.00;102195.17;2012552;70;32872;-74
2022/02/05 05:20:24;;;;;;;64.57;60.27;;;;;;;4.67;100.00;102180.65;1999689;71;32804;-72
2022/02/05 05:26:08;;;;;;;64.60;60.40;;;;;;;4.64;100.00;102178.34;2011171;71;32909;-77
2022/02/05 05:31:53;;;;;;;65.17;60.87;;;;;;;4.65;100.00;102191.05;2008697;71;32918;-72
2022/02/05 05:37:43;;;;;;;67.70;63.00;;;;;;;4.49;100.00;102197.28;2005263;71;32913;-72
2022/02/05 05:43:40;;;;;;;63.57;58.97;;;;;;;4.59;100.00;102195.48;2015866;71;32853;-78
2022/02/05 05:49:17;;;;;;;63.80;59.57;;;;;;;4.46;100.00;102192.73;2003731;71;33381;-77
2022/02/05 05:55:02;;;;;;;67.00;62.60;;;;;;;4.49;100.00;102160.70;1939553;73;33069;-77
2022/02/05 06:00:55;;;;;;;63.80;59.33;;;;;;;4.41;100.00;102160.89;2010986;71;32799;-72
2022/02/05 06:06:40;;;;;;;65.27;60.53;;;;;;;4.32;100.00;102179.51;2005357;71;32880;-77
2022/02/05 06:12:24;;;;;;;65.57;61.17;;;;;;;4.37;100.00;102184.38;1927960;73;33110;-77
2022/02/05 06:18:09;;;;;;;69.70;65.20;;;;;;;4.18;100.00;102200.36;2008017;71;32902;-72
2022/02/05 06:23:54;;;;;;;66.30;61.60;;;;;;;4.10;100.00;102209.14;2010794;71;32799;-77
2022/02/05 06:29:43;;;;;;;69.00;63.97;;;;;;;4.02;100.00;102210.69;2008933;70;33377;-78
2022/02/05 06:35:31;;;;;;;66.27;61.50;;;;;;;3.92;100.00;102197.89;2012459;71;33432;-78
2022/02/05 06:41:15;;;;;;;64.07;59.57;;;;;;;3.75;100.00;102184.74;2005932;71;33230;-77
2022/02/05 06:46:59;;;;;;;68.17;63.30;;;;;;;3.70;100.00;102192.23;1990582;71;33170;-73
2022/02/05 06:52:45;;;;;;;67.00;62.40;;;;;;;3.96;100.00;102192.82;2014334;71;32884;-78
2022/02/05 06:58:29;;;;;;;69.43;64.03;;;;;;;3.72;100.00;102192.03;2009274;71;32874;-77
2022/02/05 07:04:14;;;;;;;65.40;60.90;;;;;;;3.94;100.00;102178.42;1978944;71;33109;-78
2022/02/05 07:09:57;;;;;;;64.23;59.43;;;;;;;3.79;100.00;102191.52;2012002;71;32814;-72
2022/02/05 07:15:47;;;;;;;64.60;60.10;;;;;;;3.87;100.00;102189.42;1999049;71;33035;-78
2022/02/05 07:21:33;;;;;;;66.37;61.80;;;;;;;3.95;100.00;102186.99;2017582;71;32816;-78
2022/02/05 07:33:18;;;;;;;68.37;63.53;;;;;;;4.11;100.00;102185.21;2008970;71;33462;-74
2022/02/05 07:39:06;;;;;;;67.33;62.53;;;;;;;4.15;100.00;102204.91;1998486;71;32982;-76
2022/02/05 07:44:52;;;;;;;66.20;61.23;;;;;;;4.33;100.00;102191.36;2014457;71;32884;-71
2022/02/05 07:50:36;;;;;;;64.47;59.67;;;;;;;4.30;100.00;102198.14;1991045;71;32863;-78
2022/02/05 07:56:20;;;;;;;65.90;60.83;;;;;;;4.36;100.00;102185.45;1996118;71;32911;-72
2022/02/05 08:02:05;;;;;;;64.67;59.97;;;;;;;4.54;100.00;102190.62;1999850;71;33334;-79
2022/02/05 08:07:49;;;;;;;63.87;59.27;;;;;;;4.64;100.00;102194.33;2009514;71;32747;-78
2022/02/05 08:13:35;;;;;;;65.37;60.77;;;;;;;4.67;100.00;102199.91;1996307;71;32756;-78
2022/02/05 08:19:20;;;;;;;67.60;63.10;;;;;;;4.77;100.00;102200.34;2004286;71;33637;-78
2022/02/05 08:25:05;;;;;;;68.63;63.77;;;;;;;4.70;100.00;102205.02;1955841;72;33317;-71
2022/02/05 08:30:51;;;;;;;69.57;64.87;;;;;;;4.83;100.00;102205.85;2008482;71;33384;-72
2022/02/05 08:36:44;;;;;;;66.87;62.33;;;;;;;4.84;100.00;102210.80;2012444;70;33010;-71
2022/02/05 08:42:30;;;;;;;69.17;64.27;;;;;;;4.94;100.00;102197.45;1996108;71;32856;-69
2022/02/05 08:48:14;;;;;;;65.17;60.77;;;;;;;4.91;100.00;102193.23;2004945;71;32915;-71
2022/02/05 08:53:59;;;;;;;66.30;61.90;;;;;;;5.08;100.00;102189.48;2010208;71;33314;-71
2022/02/05 08:59:51;;;;;;;63.60;59.23;;;;;;;5.10;100.00;102187.86;2010055;70;32905;-69
2022/02/05 09:05:40;;;;;;;66.57;61.67;;;;;;;5.19;100.00;102179.16;2005366;71;32763;-70
2022/02/05 09:11:35;;;;;;;68.53;63.83;;;;;;;5.35;100.00;102186.08;1993827;71;32948;-70
2022/02/05 09:17:16;;;;;;;65.77;61.20;;;;;;;5.59;100.00;102190.02;2011967;71;32870;-76
2022/02/05 09:23:01;;;;;;;64.83;60.33;;;;;;;5.84;100.00;102180.75;2008438;71;33493;-76
2022/02/05 09:28:46;;;;;;;60.30;56.10;;;;;;;6.19;100.00;102179.80;2003397;71;32791;-76
2022/02/05 09:34:31;;;;;;;64.13;59.93;;;;;;;6.52;100.00;102164.34;2000133;71;32832;-77
2022/02/05 09:40:19;;;;;;;63.70;59.60;;;;;;;6.65;100.00;102159.23;2015486;71;32812;-75
2022/02/05 09:46:07;;;;;;;62.23;58.13;;;;;;;6.78;100.00;102154.95;2015801;71;32917;-71
2022/02/05 09:52:07;;;;;;;58.37;54.60;;;;;;;6.83;100.00;102149.06;2011960;71;32800;-71
2022/02/05 09:57:43;;;;;;;61.20;56.93;;;;;;;6.98;100.00;102125.19;2006919;71;32866;-70
2022/02/05 10:03:33;;;;;;;59.80;55.77;;;;;;;7.00;100.00;102126.35;2010962;71;33283;-72
2022/02/05 10:09:22;;;;;;;60.80;56.77;;;;;;;7.20;100.00;102122.80;2003092;71;32865;-79
2022/02/05 10:15:10;;;;;;;59.87;56.07;;;;;;;7.44;100.00;102122.39;2005087;70;33355;-71
2022/02/05 10:21:00;;;;;;;59.27;55.07;;;;;;;7.55;100.00;102108.61;2006808;71;32849;-78
2022/02/05 10:26:45;;;;;;;60.07;56.00;;;;;;;7.67;100.00;102104.50;1990677;71;32923;-70
2022/02/05 10:32:30;;;;;;;58.23;54.23;;;;;;;7.73;100.00;102106.34;2014127;71;32808;-75
2022/02/05 10:38:49;;;;;;;60.23;56.37;;;;;;;7.78;100.00;102087.11;2015761;71;32960;-75
2022/02/05 10:44:28;;;;;;;60.87;57.13;;;;;;;7.86;100.00;102090.07;2003486;71;32799;-72
2022/02/05 10:50:12;;;;;;;59.80;55.73;;;;;;;8.02;100.00;102094.91;1985473;71;33344;-74
2022/02/05 10:56:05;;;;;;;60.90;56.43;;;;;;;8.08;100.00;102090.67;2014364;71;33317;-75
2022/02/05 11:08:02;;;;;;;54.10;50.40;;;;;;;8.48;100.00;102081.13;2004559;71;32829;-74
2022/02/05 11:14:12;;;;;;;54.60;50.90;;;;;;;8.61;100.00;102073.95;2004788;71;32922;-75
2022/02/05 11:20:00;;;;;;;55.37;52.07;;;;;;;8.64;100.00;102080.96;2015832;71;33008;-77
2022/02/05 11:25:48;;;;;;;54.17;50.63;;;;;;;8.93;100.00;102074.41;2014079;71;33285;-71
2022/02/05 11:31:39;;;;;;;53.47;50.17;;;;;;;9.18;100.00;102067.16;1994215;71;32852;-71
2022/02/05 11:37:55;;;;;;;51.73;48.63;;;;;;;9.42;100.00;102051.25;1989933;71;32829;-74
2022/02/05 11:44:37;;;;;;;50.93;47.90;;;;;;;9.53;100.00;102032.34;1997618;70;32836;-73
2022/02/05 11:50:45;;;;;;;48.97;46.00;;;;;;;9.52;100.00;102023.17;2002912;71;32896;-76
2022/02/05 11:56:48;;;;;;;50.53;47.47;;;;;;;9.67;100.00;102010.67;2006544;71;32895;-78
2022/02/05 12:02:34;;;;;;;48.93;46.03;;;;;;;9.56;100.00;101991.61;1989729;71;32781;-73
2022/02/05 12:08:28;;;;;;;50.60;47.67;;;;;;;9.57;100.00;101977.50;2010308;71;32905;-70
2022/02/05 12:14:15;;;;;;;50.93;47.90;;;;;;;9.70;100.00;101973.55;2015894;71;32922;-76
2022/02/05 12:20:25;;;;;;;48.23;45.23;;;;;;;9.94;100.00;101961.71;2012366;71;33348;-72
2022/02/05 12:26:19;;;;;;;49.50;46.47;;;;;;;10.05;100.00;101934.42;1999578;71;33252;-71
2022/02/05 12:32:06;;;;;;;49.10;46.30;;;;;;;9.85;100.00;101904.41;1996202;70;33330;-77
2022/02/05 12:37:53;;;;;;;48.97;46.03;;;;;;;9.85;100.00;101922.99;2017414;71;32899;-77
2022/02/05 12:43:51;;;;;;;51.27;48.07;;;;;;;9.77;100.00;101922.03;2003737;71;33321;-71
2022/02/05 12:49:45;;;;;;;51.93;48.80;;;;;;;9.71;100.00;101910.05;2014150;71;33366;-71
2022/02/05 12:55:27;;;;;;;52.73;49.63;;;;;;;9.81;100.00;101899.62;1999832;71;33313;-76
2022/02/05 13:01:15;;;;;;;49.53;46.63;;;;;;;9.93;100.00;101894.25;2003400;71;33323;-74
2022/02/05 13:07:08;;;;;;;46.27;43.30;;;;;;;10.26;100.00;101860.60;1999984;71;33328;-77
2022/02/05 13:12:57;;;;;;;46.50;43.70;;;;;;;11.39;100.00;101843.67;2015665;71;32876;-76
2022/02/05 13:18:47;;;;;;;45.33;42.70;;;;;;;10.42;100.00;101798.58;2014045;70;32836;-78
2022/02/05 13:24:57;;;;;;;42.50;40.00;;;;;;;10.65;100.00;101813.56;2003195;71;32914;-78
2022/02/05 13:36:55;;;;;;;49.30;46.53;;;;;;;10.87;100.00;101812.08;2007190;71;32778;-72
2022/02/05 13:42:42;;;;;;;46.70;44.10;;;;;;;10.81;100.00;101816.77;2011998;71;33007;-71
2022/02/05 13:48:27;;;;;;;48.43;45.60;;;;;;;10.86;100.00;101824.32;1998223;71;32845;-77
2022/02/05 13:54:19;;;;;;;44.27;41.77;;;;;;;10.82;100.00;101814.28;1997822;70;33515;-71
2022/02/05 14:00:04;;;;;;;41.70;39.30;;;;;;;10.86;100.00;101823.77;1997445;71;32842;-70
2022/02/05 14:06:04;;;;;;;41.50;39.30;;;;;;;10.75;100.00;101821.98;2012040;71;32986;-76
2022/02/05 14:11:49;;;;;;;43.13;40.77;;;;;;;10.72;100.00;101820.28;1994242;71;32764;-76
2022/02/05 14:17:42;;;;;;;43.97;41.47;;;;;;;10.69;100.00;101816.65;1990986;71;32844;-79
2022/02/05 14:23:31;;;;;;;40.47;38.27;;;;;;;10.65;100.00;101810.78;2007696;71;32983;-78
2022/02/05 14:29:16;;;;;;;42.07;39.37;;;;;;;10.74;100.00;101796.67;2002912;71;32901;-77
2022/02/05 14:35:07;;;;;;;39.07;36.60;;;;;;;10.89;100.00;101782.09;2016141;71;33287;-71
2022/02/05 14:40:50;;;;;;;39.73;37.47;;;;;;;10.99;100.00;101775.78;2012357;71;32807;-76
2022/02/05 14:46:35;;;;;;;36.33;33.93;;;;;;;11.02;100.00;101772.47;2001251;71;32806;-78
2022/02/05 14:52:19;;;;;;;41.50;39.33;;;;;;;10.98;100.00;101766.61;2007232;71;32794;-74
2022/02/05 14:58:06;;;;;;;38.00;35.90;;;;;;;10.94;100.00;101762.13;1990527;71;32783;-76
2022/02/05 15:03:52;;;;;;;41.70;39.50;;;;;;;11.02;100.00;101742.72;1990950;71;32777;-75
2022/02/05 15:09:40;;;;;;;39.93;37.73;;;;;;;10.95;100.00;101737.95;1910458;73;33387;-72
2022/02/05 15:15:26;;;;;;;39.27;37.07;;;;;;;10.95;100.00;101744.33;2016185;71;33276;-78
2022/02/05 15:21:18;;;;;;;42.10;39.67;;;;;;;10.81;100.00;101732.55;2010863;70;32766;-78
2022/02/05 15:27:08;;;;;;;41.77;39.47;;;;;;;10.85;100.00;101730.91;1938767;73;33539;-72
2022/02/05 15:32:52;;;;;;;41.97;39.60;;;;;;;10.87;100.00;101711.47;2015050;70;33007;-81
2022/02/05 15:38:51;;;;;;;44.53;42.07;;;;;;;10.88;100.00;101712.31;1927334;73;33095;-73
2022/02/05 15:44:31;;;;;;;42.10;39.80;;;;;;;10.92;100.00;101700.39;1998509;70;32822;-78
2022/02/05 15:50:19;;;;;;;45.80;43.17;;;;;;;10.88;100.00;101692.85;2010023;71;33025;-73
2022/02/05 15:56:10;;;;;;;44.10;41.63;;;;;;;10.80;100.00;101696.97;2016533;71;32911;-74
2022/02/05 16:01:51;;;;;;;47.77;44.87;;;;;;;10.75;100.00;101687.74;1944133;70;103391;-78
2022/02/05 16:07:35;;;;;;;45.50;43.07;;;;;;;10.73;100.00;101685.80;2010870;71;32849;-77
2022/02/05 16:13:24;;;;;;;47.80;45.10;;;;;;;10.77;100.00;101685.00;2013927;71;32915;-73
2022/02/05 16:19:08;;;;;;;46.97;44.17;;;;;;;10.77;100.00;101680.00;2001631;71;33372;-75
2022/02/05 16:24:56;;;;;;;47.00;44.37;;;;;;;10.71;100.00;101670.77;2015752;70;33044;-72
2022/02/05 16:30:41;;;;;;;48.27;45.40;;;;;;;10.81;100.00;101676.97;2014297;71;32841;-75
2022/02/05 16:36:31;;;;;;;57.93;54.40;;;;;;;10.69;100.00;101660.49;2001743;71;33218;-72
2022/02/05 16:42:21;;;;;;;58.53;54.83;;;;;;;10.53;100.00;101668.39;2005300;71;33415;-74
2022/02/05 16:48:13;;;;;;;60.40;56.70;;;;;;;10.44;100.00;101659.71;1916226;73;33083;-75
2022/02/05 16:54:06;;;;;;;57.83;54.33;;;;;;;10.49;100.00;101646.42;2008495;71;33402;-75
2022/02/05 16:59:51;;;;;;;59.13;55.33;;;;;;;10.45;100.00;101655.00;2006652;71;32993;-74
2022/02/05 17:05:39;;;;;;;56.20;52.80;;;;;;;10.44;100.00;101644.44;2016233;71;33358;-76
2022/02/05 17:11:25;;;;;;;59.30;55.80;;;;;;;10.41;100.00;101637.19;1990735;71;33238;-76
2022/02/05 17:17:14;;;;;;;59.80;56.00;;;;;;;10.36;100.00;101625.48;2015824;71;32927;-75
2022/02/05 17:23:00;;;;;;;60.83;57.03;;;;;;;10.42;100.00;101630.54;2004888;71;32873;-74
2022/02/05 17:28:51;;;;;;;58.37;54.80;;;;;;;10.42;100.00;101603.61;2007328;71;33484;-75
2022/02/05 17:34:35;;;;;;;59.73;56.03;;;;;;;10.42;100.00;101602.22;1930199;73;32719;-78
2022/02/05 17:40:25;;;;;;;59.67;55.67;;;;;;;10.42;100.00;101598.05;2012158;71;32824;-72
2022/02/05 17:46:12;;;;;;;59.43;55.53;;;;;;;10.41;100.00;101606.64;2011144;71;33343;-72
2022/02/05 17:51:59;;;;;;;58.50;54.90;;;;;;;10.35;100.00;101581.34;2003204;70;33297;-71
2022/02/05 17:57:52;;;;;;;57.67;54.07;;;;;;;10.50;100.00;101589.77;2019811;71;32790;-76
2022/02/05 18:03:40;;;;;;;64.30;60.00;;;;;;;10.51;100.00;101573.39;2038318;69;32708;-77
2022/02/05 18:09:33;;;;;;;61.03;57.33;;;;;;;10.44;100.00;101569.98;1942031;72;33329;-78
2022/02/05 18:15:12;;;;;;;61.47;57.57;;;;;;;10.48;100.00;101564.22;1938640;73;33035;-78
2022/02/05 18:21:01;;;;;;;58.40;54.77;;;;;;;10.59;100.00;101564.55;1922034;73;32979;-79
2022/02/05 18:26:50;;;;;;;61.63;57.60;;;;;;;10.58;100.00;101557.86;2012954;71;33311;-72
2022/02/05 18:32:38;;;;;;;61.63;57.83;;;;;;;10.49;100.00;101552.81;2014028;71;32963;-73
2022/02/05 18:38:26;;;;;;;64.67;60.53;;;;;;;10.55;100.00;101544.52;1990624;71;32774;-72
2022/02/05 18:44:10;;;;;;;64.77;60.57;;;;;;;10.53;100.00;101529.50;2007026;71;33333;-75
2022/02/05 18:49:55;;;;;;;68.87;64.43;;;;;;;10.45;100.00;101508.63;2012670;71;32885;-81
2022/02/05 18:55:45;;;;;;;68.70;63.60;;;;;;;10.42;100.00;101506.95;1909273;73;33042;-72
2022/02/05 19:01:38;;;;;;;69.10;64.73;;;;;;;10.36;100.00;101513.55;2008476;71;33295;-74
2022/02/05 19:14:03;;;;;;;66.27;61.83;;;;;;;10.39;100.00;101498.61;1951520;72;32934;-73
2022/02/05 19:19:36;;;;;;;68.63;63.80;;;;;;;10.48;100.00;101495.58;2009443;71;32945;-79
2022/02/05 19:25:23;;;;;;;63.83;59.90;;;;;;;10.42;100.00;101490.28;2014335;71;31001;-77
2022/02/05 19:31:10;;;;;;;66.50;61.80;;;;;;;10.40;100.00;101479.43;1921936;73;33106;-76
2022/02/05 19:36:57;;;;;;;67.30;62.60;;;;;;;10.35;100.00;101492.47;2017840;71;32882;-76
2022/02/05 19:42:44;;;;;;;65.97;61.60;;;;;;;10.35;100.00;101483.59;2009342;71;32815;-72
2022/02/05 19:48:32;;;;;;;67.43;63.30;;;;;;;10.34;100.00;101475.52;1923210;73;33725;-78
2022/02/05 19:54:19;;;;;;;66.03;61.43;;;;;;;10.37;100.00;101474.97;2003021;71;31395;-79
2022/02/05 20:00:07;;;;;;;65.90;61.40;;;;;;;10.36;100.00;101473.29;2012515;71;33373;-79
2022/02/05 20:06:00;;;;;;;66.10;62.00;;;;;;;10.31;100.00;101458.02;1938616;73;33454;-83
2022/02/05 20:11:44;;;;;;;68.47;63.77;;;;;;;10.29;100.00;101447.72;2010659;71;32966;-73
2022/02/05 20:17:29;;;;;;;65.33;60.73;;;;;;;10.36;100.00;101437.19;2007296;71;33232;-75
2022/02/05 20:23:15;;;;;;;69.30;63.77;;;;;;;10.31;100.00;101433.02;2014212;71;32978;-73
2022/02/05 20:29:00;;;;;;;67.37;62.63;;;;;;;10.38;100.00;101430.28;1996551;71;33385;-72
2022/02/05 20:34:45;;;;;;;67.87;63.03;;;;;;;10.49;100.00;101436.16;2017456;71;33019;-74
2022/02/05 20:40:36;;;;;;;66.13;61.63;;;;;;;10.54;100.00;101422.01;2006265;71;33424;-71
2022/02/05 20:46:21;;;;;;;67.87;63.27;;;;;;;10.53;100.00;101409.22;2006773;70;32887;-77
2022/02/05 20:52:06;;;;;;;67.17;62.27;;;;;;;10.52;100.00;101400.08;1940409;74;31097;-79
2022/02/05 20:57:54;;;;;;;66.30;61.23;;;;;;;10.65;100.00;101394.57;2013820;71;32895;-76
2022/02/05 21:03:42;;;;;;;68.27;63.73;;;;;;;10.69;100.00;101402.09;1968476;71;33051;-75
2022/02/05 21:09:25;;;;;;;64.27;60.07;;;;;;;10.71;100.00;101399.02;1990764;71;33195;-74
2022/02/05 21:15:11;;;;;;;67.03;62.37;;;;;;;10.71;100.00;101363.73;2010158;71;32954;-76
2022/02/05 21:20:55;;;;;;;62.57;58.37;;;;;;;10.63;100.00;101364.27;2009013;71;32820;-75
2022/02/05 21:26:44;;;;;;;67.63;63.30;;;;;;;10.93;100.00;101371.84;2011184;71;32740;-79
2022/02/05 21:32:29;;;;;;;66.53;61.57;;;;;;;10.81;100.00;101349.88;2005092;71;32862;-79
2022/02/05 21:38:14;;;;;;;65.83;61.53;;;;;;;10.93;100.00;101358.79;2014134;71;32884;-76
2022/02/05 21:43:58;;;;;;;63.00;59.00;;;;;;;10.90;100.00;101343.22;2017817;71;33446;-79
2022/02/05 21:49:52;;;;;;;65.13;60.90;;;;;;;10.90;100.00;101337.11;2007407;71;33198;-77
2022/02/05 21:55:39;;;;;;;66.00;61.50;;;;;;;10.91;100.00;101335.98;2009746;71;32766;-74
2022/02/05 22:01:23;;;;;;;66.23;61.77;;;;;;;10.90;100.00;101337.66;2000750;71;32773;-78
2022/02/05 22:07:09;;;;;;;66.10;61.47;;;;;;;10.90;100.00;101324.61;2007036;71;32799;-72
2022/02/05 22:12:53;;;;;;;65.77;61.33;;;;;;;10.92;100.00;101322.37;1994541;71;32803;-71
2022/02/05 22:18:37;;;;;;;66.67;62.40;;;;;;;10.94;100.00;101324.33;2005454;71;32950;-72
2022/02/05 22:24:25;;;;;;;69.47;64.83;;;;;;;10.94;100.00;101329.89;2016660;71;33040;-71
2022/02/05 22:30:11;;;;;;;72.50;67.50;;;;;;;10.75;100.00;101298.72;2012089;71;32927;-70
2022/02/05 22:35:55;;;;;;;71.40;66.70;;;;;;;10.79;100.00;101326.23;2008464;71;32891;-74
2022/02/05 22:41:39;;;;;;;69.70;64.70;;;;;;;10.75;100.00;101317.62;1932870;73;33079;-71
2022/02/05 22:47:25;;;;;;;68.97;63.90;;;;;;;10.69;100.00;101293.73;2017685;71;31408;-76
2022/02/05 22:53:10;;;;;;;70.87;65.57;;;;;;;10.70;100.00;101282.88;1994303;70;33286;-75
2022/02/05 22:58:57;;;;;;;69.47;64.57;;;;;;;10.69;100.00;101285.39;2014112;71;33386;-71
2022/02/05 23:04:43;;;;;;;67.97;63.00;;;;;;;10.75;100.00;101270.93;1974355;72;32940;-76
2022/02/05 23:10:35;;;;;;;69.03;64.60;;;;;;;10.71;100.00;101244.81;2014320;71;32860;-71
2022/02/05 23:16:53;;;;;;;65.07;60.47;;;;;;;10.79;100.00;101245.09;1998484;71;32883;-75
2022/02/05 23:40:57;;;;;;;67.17;62.60;;;;;;;10.85;100.00;101221.77;1994307;71;32880;-75
2022/02/05 23:46:41;;;;;;;67.77;63.30;;;;;;;10.90;100.00;101215.38;2003709;71;32817;-71
2022/02/05 23:52:27;;;;;;;69.10;64.80;;;;;;;10.89;100.00;101208.14;2007252;71;32832;-75
2022/02/05 23:58:12;;;;;;;68.00;63.50;;;;;;;10.91;100.00;101192.84;2009304;71;32767;-75
